createdAt,value
2019-05-11T00:02:22.745Z,43.83
2019-05-11T00:04:54.513Z,45.23
2019-05-11T00:07:26.355Z,44.57
2019-05-11T00:09:58.706Z,45.60
2019-05-11T00:12:34.245Z,43.60
2019-05-11T00:15:07.540Z,44.43
2019-05-11T00:17:39.278Z,45.60
2019-05-11T00:20:11.717Z,45.12
2019-05-11T00:22:43.828Z,45.10
2019-05-11T00:25:15.763Z,44.50
2019-05-11T00:27:47.437Z,43.05
2019-05-11T00:30:19.331Z,43.83
2019-05-11T00:32:53.059Z,44.37
2019-05-11T00:35:24.579Z,44.95
2019-05-11T00:37:57.192Z,46.63
2019-05-11T00:40:30.720Z,48.40
2019-05-11T00:43:02.305Z,46.67
2019-05-11T00:45:34.280Z,44.43
2019-05-11T00:48:06.162Z,48.27
2019-05-11T00:50:39.968Z,45.93
2019-05-11T00:53:11.539Z,47.58
2019-05-11T00:55:43.074Z,45.83
2019-05-11T00:58:15.257Z,42.67
2019-05-11T01:00:47.004Z,42.17
2019-05-11T01:03:19.609Z,40.60
2019-05-11T01:05:52.311Z,41.13
2019-05-11T01:08:23.880Z,40.77
2019-05-11T01:10:55.673Z,38.90
2019-05-11T01:13:27.649Z,38.97
2019-05-11T01:16:01.375Z,38.53
2019-05-11T01:18:33.136Z,39.33
2019-05-11T01:21:04.961Z,40.27
2019-05-11T01:23:41.220Z,40.78
2019-05-11T01:26:13.323Z,38.67
2019-05-11T01:28:44.829Z,39.63
2019-05-11T01:31:16.655Z,38.85
2019-05-11T01:33:48.651Z,40.57
2019-05-11T01:36:21.774Z,39.20
2019-05-11T01:38:53.807Z,39.53
2019-05-11T01:41:25.582Z,37.80
2019-05-11T01:43:57.507Z,37.20
2019-05-11T01:46:29.156Z,39.60
2019-05-11T01:49:02.511Z,38.33
2019-05-11T01:51:34.527Z,38.53
2019-05-11T01:54:06.343Z,39.03
2019-05-11T01:56:38.252Z,38.67
2019-05-11T01:59:11.142Z,38.47
2019-05-11T02:01:42.707Z,38.57
2019-05-11T02:04:14.544Z,39.25
2019-05-11T02:06:48.036Z,36.93
2019-05-11T02:09:20.095Z,36.70
2019-05-11T02:11:52.667Z,35.83
2019-05-11T02:14:24.534Z,36.53
2019-05-11T02:16:56.730Z,36.40
2019-05-11T02:19:28.578Z,36.57
2019-05-11T02:22:00.466Z,36.20
2019-05-11T02:24:32.196Z,34.13
2019-05-11T02:27:04.836Z,34.33
2019-05-11T02:29:36.431Z,32.93
2019-05-11T02:32:08.272Z,33.67
2019-05-11T02:34:40.954Z,31.93
2019-05-11T02:37:14.281Z,32.13
2019-05-11T02:39:46.002Z,28.90
2019-05-11T02:42:17.702Z,26.20
2019-05-11T02:44:49.734Z,25.33
2019-05-11T02:47:21.852Z,25.45
2019-05-11T02:49:54.184Z,24.93
2019-05-11T02:52:26.970Z,25.47
2019-05-11T02:55:00.397Z,26.30
2019-05-11T02:57:32.491Z,25.87
2019-05-11T03:00:04.873Z,25.83
2019-05-11T03:02:36.920Z,25.63
2019-05-11T03:05:09.730Z,26.43
2019-05-11T03:07:42.218Z,25.70
2019-05-11T03:10:13.934Z,25.93
2019-05-11T03:12:46.848Z,25.27
2019-05-11T03:15:18.378Z,24.32
2019-05-11T03:17:50.072Z,25.43
2019-05-11T03:20:22.134Z,24.60
2019-05-11T03:22:54.965Z,24.70
2019-05-11T03:25:26.949Z,25.80
2019-05-11T03:28:00.322Z,27.52
2019-05-11T03:30:32.168Z,29.93
2019-05-11T03:33:03.810Z,29.47
2019-05-11T03:35:35.719Z,31.40
2019-05-11T03:38:07.358Z,29.60
2019-05-11T03:40:39.011Z,28.13
2019-05-11T03:43:11.014Z,29.50
2019-05-11T03:45:43.337Z,28.23
2019-05-11T03:48:14.951Z,29.48
2019-05-11T03:50:46.830Z,29.93
2019-05-11T03:53:18.917Z,27.40
2019-05-11T03:55:50.764Z,27.37
2019-05-11T03:58:26.313Z,26.10
2019-05-11T04:00:57.557Z,27.23
2019-05-11T04:03:29.267Z,25.83
2019-05-11T04:06:00.807Z,24.70
2019-05-11T04:08:32.301Z,25.13
2019-05-11T04:11:04.375Z,25.53
2019-05-11T04:13:36.364Z,24.13
2019-05-11T04:16:08.571Z,23.10
2019-05-11T04:18:40.669Z,25.57
2019-05-11T04:21:13.776Z,24.70
2019-05-11T04:23:47.162Z,24.37
2019-05-11T04:26:20.208Z,26.55
2019-05-11T04:28:52.924Z,25.17
2019-05-11T04:31:24.587Z,25.10
2019-05-11T04:33:56.623Z,24.53
2019-05-11T04:36:28.527Z,26.77
2019-05-11T04:39:00.264Z,26.07
2019-05-11T04:41:31.968Z,25.83
2019-05-11T04:44:03.512Z,25.63
2019-05-11T04:46:35.331Z,26.13
2019-05-11T04:49:07.065Z,25.47
2019-05-11T04:51:38.963Z,25.90
2019-05-11T04:54:10.656Z,25.85
2019-05-11T04:56:42.301Z,26.10
2019-05-11T04:59:14.192Z,25.95
2019-05-11T05:01:46.990Z,26.77
2019-05-11T05:04:19.032Z,25.70
2019-05-11T05:06:59.380Z,25.47
2019-05-11T05:09:24.447Z,24.50
2019-05-11T05:11:56.348Z,23.30
2019-05-11T05:14:27.849Z,24.07
2019-05-11T05:17:01.074Z,24.07
2019-05-11T05:19:32.898Z,24.37
2019-05-11T05:22:04.468Z,23.60
2019-05-11T05:24:36.598Z,20.33
2019-05-11T05:27:08.555Z,19.47
2019-05-11T05:29:40.575Z,21.70
2019-05-11T05:32:13.993Z,20.07
2019-05-11T05:34:45.601Z,20.93
2019-05-11T05:37:17.720Z,20.88
2019-05-11T05:39:49.349Z,20.97
2019-05-11T05:42:20.992Z,21.40
2019-05-11T05:44:52.940Z,21.97
2019-05-11T05:47:25.377Z,20.63
2019-05-11T05:49:56.893Z,20.53
2019-05-11T05:52:28.706Z,20.47
2019-05-11T05:55:00.315Z,18.47
2019-05-11T05:57:31.921Z,18.17
2019-05-11T06:00:05.079Z,18.93
2019-05-11T06:02:36.804Z,19.53
2019-05-11T06:05:08.717Z,17.40
2019-05-11T06:07:40.351Z,14.37
2019-05-11T06:10:13.331Z,15.65
2019-05-11T06:12:45.048Z,13.10
2019-05-11T06:15:17.619Z,15.83
2019-05-11T06:17:49.277Z,14.00
2019-05-11T06:20:21.144Z,13.48
2019-05-11T06:22:53.705Z,12.90
2019-05-11T06:25:25.628Z,11.83
2019-05-11T06:27:57.411Z,11.77
2019-05-11T06:30:29.427Z,11.63
2019-05-11T06:33:01.675Z,12.27
2019-05-11T06:35:34.847Z,10.80
2019-05-11T06:38:06.732Z,10.48
2019-05-11T18:03:53.246Z,6.57
2019-05-11T18:06:25.756Z,6.60
2019-05-11T18:08:58.456Z,8.70
2019-05-11T18:11:30.335Z,5.53
2019-05-11T18:14:01.949Z,5.77
2019-05-11T18:16:33.628Z,5.33
2019-05-11T18:19:08.182Z,6.70
2019-05-11T18:21:39.114Z,5.00
2019-05-11T18:24:10.661Z,6.92
2019-05-11T18:26:42.230Z,6.10
2019-05-11T18:29:13.783Z,6.47
2019-05-11T18:31:45.511Z,5.50
2019-05-11T18:34:17.857Z,6.17
2019-05-11T18:36:49.544Z,6.10
2019-05-11T18:39:21.471Z,5.23
2019-05-11T18:41:53.402Z,6.37
2019-05-11T18:44:25.206Z,5.60
2019-05-11T18:46:59.159Z,6.50
2019-05-11T18:49:30.245Z,7.07
2019-05-11T18:52:01.844Z,5.43
2019-05-11T18:54:33.575Z,5.70
2019-05-11T18:57:08.011Z,6.27
2019-05-11T18:59:39.313Z,6.07
2019-05-11T19:02:12.151Z,5.87
2019-05-11T19:04:43.992Z,5.87
2019-05-11T19:07:17.202Z,6.62
2019-05-11T19:09:49.036Z,6.47
2019-05-11T19:12:20.795Z,5.97
2019-05-11T19:20:46.340Z,8.77
2019-05-11T19:23:19.185Z,7.97
2019-05-11T19:25:51.031Z,5.67
2019-05-11T19:28:22.960Z,6.47
2019-05-11T19:30:54.801Z,7.07
2019-05-11T19:33:27.780Z,7.17
2019-05-11T19:35:59.711Z,7.47
2019-05-11T19:38:31.332Z,8.50
2019-05-11T19:41:03.832Z,10.70
2019-05-11T19:43:38.000Z,8.20
2019-05-11T19:46:09.086Z,8.20
2019-05-11T19:48:41.287Z,11.23
2019-05-11T19:51:13.006Z,11.53
2019-05-11T19:53:44.705Z,10.27
2019-05-11T19:56:18.324Z,10.70
2019-05-11T19:58:50.289Z,13.33
2019-05-11T20:01:22.554Z,8.70
2019-05-11T20:03:54.378Z,10.10
2019-05-11T20:06:28.066Z,9.20
2019-05-11T20:08:59.291Z,9.63
2019-05-11T20:11:31.026Z,10.67
2019-05-11T20:14:02.991Z,10.47
2019-05-11T20:16:34.928Z,9.47
2019-05-11T20:19:08.682Z,11.80
2019-05-11T20:21:40.608Z,11.90
2019-05-11T20:24:12.472Z,7.90
2019-05-11T20:26:44.482Z,8.57
2019-05-11T20:29:16.890Z,9.50
2019-05-11T20:31:48.847Z,8.50
2019-05-11T20:34:21.943Z,8.80
2019-05-11T20:36:53.705Z,8.70
2019-05-11T20:39:25.443Z,8.70
2019-05-11T20:41:58.206Z,10.00
2019-05-11T20:44:30.569Z,11.20
2019-05-11T20:47:02.145Z,9.23
2019-05-11T20:49:34.221Z,8.90
2019-05-11T20:52:08.556Z,9.50
2019-05-11T20:54:39.243Z,11.70
2019-05-11T20:57:11.893Z,9.63
2019-05-11T20:59:43.588Z,9.87
2019-05-11T21:02:18.013Z,9.70
2019-05-11T21:04:49.277Z,9.47
2019-05-11T21:07:21.156Z,9.23
2019-05-11T21:09:52.706Z,11.07
2019-05-11T21:12:25.491Z,9.03
2019-05-11T21:14:58.360Z,13.87
2019-05-11T21:17:30.315Z,9.53
2019-05-11T21:20:02.011Z,9.00
2019-05-11T21:22:34.252Z,9.73
2019-05-11T21:25:08.824Z,10.37
2019-05-11T21:27:39.779Z,9.17
2019-05-11T21:30:11.755Z,12.23
2019-05-11T21:32:43.888Z,9.57
2019-05-11T21:35:15.601Z,8.97
2019-05-11T21:37:48.751Z,10.20
2019-05-11T21:40:21.562Z,10.43
2019-05-11T21:42:53.667Z,9.77
2019-05-11T21:45:25.129Z,9.80
2019-05-11T21:47:57.975Z,10.10
2019-05-11T21:50:30.033Z,9.17
2019-05-11T21:53:01.640Z,10.63
2019-05-11T21:55:33.459Z,9.67
2019-05-11T21:58:05.503Z,10.00
2019-05-11T22:00:38.724Z,10.17
2019-05-11T22:03:10.958Z,10.80
2019-05-11T22:05:42.412Z,10.20
2019-05-11T22:08:17.690Z,9.50
2019-05-11T22:10:49.088Z,9.50
2019-05-11T22:13:20.824Z,11.27
2019-05-11T22:15:52.685Z,10.90
2019-05-11T22:18:30.916Z,10.37
2019-05-11T22:20:58.219Z,14.07
2019-05-11T22:23:29.958Z,14.60
2019-05-11T22:26:01.712Z,12.03
2019-05-11T22:28:34.240Z,11.33
2019-05-11T22:31:07.852Z,14.27
2019-05-11T22:33:39.644Z,10.77
2019-05-11T22:36:13.175Z,10.83
2019-05-11T22:38:45.099Z,10.87
2019-05-11T22:41:18.068Z,12.63
2019-05-11T22:43:49.980Z,12.33
2019-05-11T22:46:23.034Z,11.87
2019-05-11T22:48:54.592Z,11.87
2019-05-11T22:51:28.579Z,11.57
2019-05-11T22:53:59.743Z,12.30
2019-05-11T22:56:31.386Z,12.20
2019-05-11T22:59:03.322Z,11.33
2019-05-11T23:01:37.809Z,11.67
2019-05-11T23:04:09.172Z,11.13
2019-05-11T23:06:42.690Z,11.93
2019-05-11T23:09:14.349Z,12.07
2019-05-11T23:11:48.282Z,12.00
2019-05-11T23:14:20.042Z,11.37
2019-05-11T23:16:52.967Z,12.30
2019-05-11T23:19:27.745Z,11.03
2019-05-11T23:21:58.859Z,11.27
2019-05-11T23:24:31.548Z,11.83
2019-05-11T23:27:03.071Z,10.63
2019-05-11T23:29:35.193Z,11.07
2019-05-11T23:32:08.673Z,10.00
2019-05-11T23:34:40.823Z,11.17
2019-05-11T23:37:13.356Z,11.73
2019-05-11T23:39:47.994Z,11.27
2019-05-11T23:42:19.434Z,11.50
2019-05-11T23:44:51.530Z,11.23
2019-05-11T23:47:24.714Z,11.87
2019-05-11T23:49:58.155Z,13.07
2019-05-11T23:52:29.803Z,11.87
2019-05-11T23:55:02.053Z,12.57
2019-05-11T23:57:33.986Z,12.03
